ADDS METAR Data INFO
IDs: Format: Raw Decoded Include TAF

Data at: 0938 UTC 17 Oct 2017

KMOT 170854Z AUTO 22010KT 10SM CLR 11/01 A2985 RMK AO2 SLP108 T01110006 58012
KMOT 170754Z AUTO 20008KT 10SM CLR 09/01 A2987 RMK AO2 SLP115 T00890006
KMOT 170654Z AUTO 21010KT 10SM CLR 08/01 A2988 RMK AO2 SLP120 T00830011
KMOT 170554Z AUTO 20007KT 10SM CLR 08/01 A2988 RMK AO2 SLP123 T00830006 10150 20083 402110050 58009
KMOT 170454Z AUTO 23010KT 10SM CLR 10/01 A2990 RMK AO2 SLP128 T01000006
KMOT 170354Z AUTO 23010KT 10SM CLR 10/01 A2991 RMK AO2 SLP134 T01000011
KMOT 170254Z 23009KT 10SM CLR 11/01 A2991 RMK AO2 SLP135 T01060011 53002
KMOT 170154Z 21009KT 10SM CLR 11/02 A2990 RMK AO2 SLP135 T01110017
KMOT 170054Z 21008KT 10SM CLR 13/02 A2991 RMK AO2 SLP136 T01280017
KMOT 162354Z 26007KT 10SM CLR 15/02 A2991 RMK AO2 SLP133 T01500017 10211 20150 51010
KMOT 162254Z 28010KT 10SM CLR 19/01 A2990 RMK AO2 SLP128 T01890011
KMOT 162154Z 26013KT 10SM CLR 19/02 A2989 RMK AO2 SLP125 T01940017
KMOT 162054Z 27012KT 10SM CLR 19/01 A2987 RMK AO2 SLP120 T01940006 55003
KMOT 161954Z 26015G23KT 10SM CLR 21/01 A2987 RMK AO2 SLP116 T02060006
KMOT 161854Z 27017G24KT 10SM CLR 19/01 A2987 RMK AO2 SLP120 T01940011
KMOT 161754Z 27016G24KT 10SM CLR 17/02 A2988 RMK AO2 PK WND 26026/1718 SLP125 T01720017 10178 20067 53001
KMOT 161654Z 27015G25KT 10SM CLR 17/02 A2988 RMK AO2 PK WND 26026/1644 SLP124 T01670017
KMOT 161554Z 23017KT 10SM CLR 15/02 A2988 RMK AO2 SLP126 T01500017
KMOT 161454Z 23013KT 10SM CLR 12/01 A2988 RMK AO2 SLP129 T01170006 56005
KMOT 161354Z 24011KT 10SM CLR 08/00 A2989 RMK AO2 SLP134 T00830000
KMOT 161254Z 21012KT 10SM CLR 07/M01 A2989 RMK AO2 SLP132 T00671006
KMOT 161154Z 21014KT 10SM CLR 07/M01 A2990 RMK AO2 SLP134 T00721006 10083 20050 56027
KMOT 161054Z AUTO 20014G21KT 10SM CLR 08/M01 A2992 RMK AO2 SLP139 T00781006
KMOT 160954Z AUTO 19014KT 10SM CLR 08/M01 A2994 RMK AO2 SLP147 T00781006
KMOT 160854Z AUTO 20012KT 10SM CLR 08/M01 A2998 RMK AO2 SLP161 T00781006 58025
KMOT 160754Z AUTO 19008KT 10SM CLR 07/00 A3002 RMK AO2 SLP172 T00670000
KMOT 160654Z AUTO 20004KT 10SM CLR 05/M01 A3004 RMK AO2 SLP183 T00501011
KMOT 160554Z AUTO 22008KT 10SM CLR 06/M01 A3006 RMK AO2 SLP189 T00611006 10100 20044 401330028 58020
KMOT 160454Z AUTO 22009KT 10SM CLR 06/M01 A3009 RMK AO2 SLP199 T00561006
KMOT 160354Z AUTO 22008KT 10SM CLR 04/M01 A3011 RMK AO2 SLP209 T00441011
KMOT 160254Z 22009KT 10SM CLR 05/M01 A3012 RMK AO2 SLP214 T00501011 57001
KMOT 160154Z 22008KT 10SM CLR 06/M02 A3013 RMK AO2 SLP215 T00561017
KMOT 160054Z 18003KT 10SM CLR 07/M02 A3012 RMK AO2 SLP213 T00721017
KMOT 152354Z 28005KT 10SM CLR 09/M02 A3012 RMK AO2 SLP212 T00941017 10133 20089 50001
KMOT 152254Z 28014KT 10SM CLR 13/M02 A3013 RMK AO2 SLP211 T01281017
KMOT 152154Z 29015G26KT 10SM CLR 13/M02 A3013 RMK AO2 PK WND 28027/2141 SLP211 T01331017